createdAt,value
2022-10-05T00:00:20.416Z,73.09
2022-10-05T00:02:50.698Z,73.22
2022-10-05T00:05:25.761Z,72.86
2022-10-05T00:07:54.877Z,73.18
2022-10-05T00:10:23.420Z,73.36
2022-10-05T00:12:51.326Z,73.86
2022-10-05T00:15:21.482Z,73.88
2022-10-05T00:17:51.839Z,73.62
2022-10-05T00:20:25.430Z,73.57
2022-10-05T00:23:02.173Z,73.26
2022-10-05T00:25:29.905Z,72.18
2022-10-05T00:28:00.135Z,73.10
2022-10-05T00:30:33.234Z,74.49
2022-10-05T00:33:01.181Z,74.81
2022-10-05T00:35:29.622Z,74.05
2022-10-05T00:37:57.466Z,74.14
2022-10-05T00:40:37.217Z,74.44
2022-10-05T00:43:12.531Z,73.77
2022-10-05T00:45:53.936Z,74.29
2022-10-05T00:48:39.296Z,72.96
2022-10-05T00:51:06.932Z,74.56
2022-10-05T00:53:47.797Z,73.34
2022-10-05T00:56:40.808Z,73.43
2022-10-05T00:59:38.090Z,73.25
2022-10-05T01:02:25.869Z,72.85
2022-10-05T01:05:03.604Z,73.42
2022-10-05T01:07:47.371Z,73.73
2022-10-05T01:10:16.105Z,73.83
2022-10-05T01:13:02.078Z,73.07
2022-10-05T01:16:06.745Z,72.97
2022-10-05T01:18:48.904Z,73.69
2022-10-05T01:21:23.041Z,74.14
2022-10-05T01:24:09.049Z,74.52
2022-10-05T01:27:02.856Z,75.07
2022-10-05T01:29:52.080Z,75.25
2022-10-05T01:32:32.075Z,74.24
2022-10-05T01:35:25.921Z,74.32
2022-10-05T01:38:11.391Z,74.52
2022-10-05T01:41:16.910Z,74.31
2022-10-05T01:43:53.552Z,74.25
2022-10-05T01:46:38.961Z,74.24
2022-10-05T01:49:15.303Z,74.65
2022-10-05T01:51:52.948Z,74.35
2022-10-05T01:54:55.573Z,74.82
2022-10-05T01:57:27.060Z,75.17
2022-10-05T02:00:04.586Z,76.16
2022-10-05T02:03:16.378Z,76.19
2022-10-05T02:05:50.053Z,76.87
2022-10-05T02:08:48.769Z,76.48
2022-10-05T02:11:17.247Z,76.25
2022-10-05T02:13:50.950Z,76.19
2022-10-05T02:16:31.816Z,75.41
2022-10-05T02:19:14.902Z,75.32
2022-10-05T02:21:46.555Z,76.04
2022-10-05T02:24:24.003Z,74.97
2022-10-05T02:26:53.527Z,75.39
2022-10-05T02:29:26.580Z,76.41
2022-10-05T02:31:59.172Z,76.67
2022-10-05T02:34:42.088Z,77.48
2022-10-05T02:37:28.740Z,77.54
2022-10-05T02:40:09.621Z,77.24
2022-10-05T02:43:04.980Z,77.16
2022-10-05T02:45:41.755Z,76.68
2022-10-05T02:48:20.954Z,76.18
2022-10-05T02:51:00.853Z,76.62
2022-10-05T02:53:56.015Z,77.75
2022-10-05T02:56:36.595Z,76.48
2022-10-05T02:59:23.231Z,76.30
2022-10-05T03:01:56.940Z,76.12
2022-10-05T03:04:53.964Z,76.08
2022-10-05T03:07:41.976Z,75.59
2022-10-05T03:10:25.352Z,76.32
2022-10-05T03:13:05.199Z,76.61
2022-10-05T03:15:52.087Z,77.62
2022-10-05T03:18:40.169Z,80.48
2022-10-05T03:21:21.900Z,78.51
2022-10-05T03:24:26.285Z,79.28
2022-10-05T03:27:26.280Z,79.11
2022-10-05T03:30:09.045Z,78.78
2022-10-05T03:32:55.810Z,77.77
2022-10-05T03:35:57.510Z,79.92
2022-10-05T03:38:48.466Z,79.68
2022-10-05T03:41:28.866Z,80.20
2022-10-05T03:44:15.798Z,79.54
2022-10-05T03:47:05.194Z,79.22
2022-10-05T03:49:49.985Z,80.17
2022-10-05T03:52:23.668Z,80.15
2022-10-05T03:55:07.203Z,79.30
2022-10-05T03:57:38.970Z,79.40
2022-10-05T04:00:18.252Z,79.12
2022-10-05T04:03:00.392Z,79.24
2022-10-05T04:05:33.039Z,78.97
2022-10-05T04:08:16.107Z,78.33
2022-10-05T04:10:52.364Z,78.29
2022-10-05T04:13:24.689Z,79.30
2022-10-05T04:16:11.690Z,78.79
2022-10-05T04:19:19.396Z,79.08
2022-10-05T04:22:26.163Z,79.37
2022-10-05T04:25:05.844Z,81.31
2022-10-05T04:27:42.138Z,80.32
2022-10-05T04:30:15.016Z,80.33
2022-10-05T04:32:48.236Z,79.79
2022-10-05T04:35:34.984Z,79.14
2022-10-05T04:38:37.790Z,79.65
2022-10-05T04:41:25.119Z,80.33
2022-10-05T04:44:09.130Z,79.82
2022-10-05T04:46:58.515Z,79.52
2022-10-05T04:49:32.395Z,80.30
2022-10-05T04:52:15.483Z,79.78
2022-10-05T04:55:01.878Z,79.68
2022-10-05T04:57:46.272Z,79.27
2022-10-05T05:00:24.510Z,79.58
2022-10-05T05:03:20.998Z,79.33
2022-10-05T05:06:32.969Z,79.92
2022-10-05T05:09:28.523Z,79.42
2022-10-05T05:11:55.898Z,83.08
2022-10-05T05:14:27.032Z,83.48
2022-10-05T05:17:16.125Z,83.60
2022-10-05T05:19:51.094Z,84.04
2022-10-05T05:22:31.895Z,83.56
2022-10-05T05:25:17.339Z,84.64
2022-10-05T05:28:15.366Z,84.04
2022-10-05T05:30:44.331Z,85.07
2022-10-05T05:33:54.483Z,84.68
2022-10-05T05:36:52.193Z,84.39
2022-10-05T05:39:24.888Z,83.94
2022-10-05T05:42:01.401Z,82.80
2022-10-05T05:44:40.664Z,82.20
2022-10-05T05:47:21.734Z,83.07
2022-10-05T05:50:24.648Z,82.05
2022-10-05T05:53:01.112Z,81.51
2022-10-05T05:55:46.610Z,80.45
2022-10-05T05:58:24.732Z,79.79
2022-10-05T06:00:55.410Z,81.46
2022-10-05T06:03:32.879Z,79.96
2022-10-05T06:06:09.669Z,80.35
2022-10-05T06:08:47.710Z,79.61
2022-10-05T06:11:37.742Z,78.47
2022-10-05T06:14:16.437Z,77.69
2022-10-05T06:17:07.888Z,77.01
2022-10-05T06:19:40.618Z,77.91
2022-10-05T06:22:19.922Z,77.46
2022-10-05T06:25:02.975Z,76.94
2022-10-05T06:27:45.145Z,76.52
2022-10-05T06:30:18.280Z,75.67
2022-10-05T06:33:14.443Z,76.84
2022-10-05T06:35:56.911Z,76.01
2022-10-05T06:38:55.095Z,78.08
2022-10-05T06:42:06.289Z,77.88
2022-10-05T06:45:16.692Z,75.75
2022-10-05T06:48:06.016Z,75.64
2022-10-05T06:50:36.928Z,74.96
2022-10-05T06:53:28.191Z,73.64
2022-10-05T06:56:11.023Z,72.56
2022-10-05T06:58:55.785Z,73.30
2022-10-05T07:01:45.634Z,71.96
2022-10-05T07:04:58.177Z,71.91
2022-10-05T07:07:39.699Z,71.99
2022-10-05T07:10:24.780Z,72.61
2022-10-05T07:13:16.437Z,71.45
2022-10-05T07:16:12.527Z,69.54
2022-10-05T07:19:11.680Z,70.06
2022-10-05T07:21:48.755Z,68.21
2022-10-05T07:24:32.304Z,66.61
2022-10-05T07:27:35.012Z,66.43
2022-10-05T07:30:08.849Z,64.77
2022-10-05T07:33:05.709Z,63.44
2022-10-05T07:36:19.447Z,61.03
2022-10-05T07:39:05.361Z,60.00
2022-10-05T07:41:51.933Z,60.45
2022-10-05T07:44:41.166Z,60.28
2022-10-05T07:47:22.552Z,59.53
2022-10-05T07:50:04.340Z,59.35
2022-10-05T07:52:38.477Z,59.86
2022-10-05T07:55:16.107Z,60.61
2022-10-05T07:58:05.527Z,57.75
2022-10-05T08:01:08.337Z,57.33
2022-10-05T08:03:49.620Z,57.45
2022-10-05T08:06:46.355Z,56.08
2022-10-05T08:09:33.933Z,55.18
2022-10-05T08:12:33.565Z,52.57
2022-10-05T08:15:14.319Z,51.82
2022-10-05T08:17:49.032Z,51.55
2022-10-05T08:20:25.652Z,49.48
2022-10-05T08:23:19.694Z,46.61
2022-10-05T08:26:00.867Z,48.17
2022-10-05T08:28:44.013Z,49.48
2022-10-05T08:31:21.801Z,48.81
2022-10-05T08:34:22.845Z,48.56
2022-10-05T08:37:08.992Z,48.57
2022-10-05T08:39:41.717Z,49.35
2022-10-05T08:42:43.916Z,48.78
2022-10-05T08:45:21.473Z,50.22
2022-10-05T08:48:12.722Z,49.53
2022-10-05T08:50:50.047Z,47.99
2022-10-05T08:53:26.711Z,48.51
2022-10-05T08:56:06.203Z,48.55
2022-10-05T08:59:05.046Z,48.62
2022-10-05T09:01:41.086Z,48.39
2022-10-05T09:04:53.783Z,44.68
2022-10-05T09:08:05.396Z,42.19
2022-10-05T09:11:11.117Z,42.35
2022-10-05T09:14:19.002Z,44.54
2022-10-05T09:17:22.025Z,40.68
2022-10-05T09:20:26.764Z,41.12
2022-10-05T09:23:12.603Z,41.44
2022-10-05T09:25:57.520Z,40.27
2022-10-05T09:28:29.984Z,40.86
2022-10-05T09:31:15.714Z,41.94
2022-10-05T09:34:01.511Z,43.13
2022-10-05T09:37:08.789Z,41.25
2022-10-05T09:40:02.822Z,42.10
2022-10-05T09:42:54.512Z,41.85
2022-10-05T09:45:31.399Z,42.33
2022-10-05T09:48:07.634Z,39.72
2022-10-05T09:50:38.305Z,41.20
2022-10-05T09:53:24.074Z,39.92
2022-10-05T09:56:30.353Z,41.56
2022-10-05T09:59:05.878Z,40.75
2022-10-05T10:01:36.753Z,41.05
2022-10-05T10:04:41.581Z,38.91
2022-10-05T10:07:23.789Z,39.80
2022-10-05T10:10:16.325Z,41.29
2022-10-05T10:13:23.599Z,42.53
2022-10-05T10:16:30.715Z,40.29
2022-10-05T10:19:24.911Z,41.05
2022-10-05T10:22:31.299Z,38.31
2022-10-05T10:25:20.741Z,38.66
2022-10-05T10:27:54.491Z,40.58
2022-10-05T10:30:38.560Z,40.75
2022-10-05T10:33:40.262Z,38.21
2022-10-05T10:36:13.933Z,38.97
2022-10-05T10:39:05.392Z,39.22
2022-10-05T10:41:52.279Z,39.99
2022-10-05T10:44:38.868Z,36.72
2022-10-05T10:47:38.517Z,36.94
2022-10-05T10:50:25.358Z,37.38
2022-10-05T10:52:55.544Z,36.90
2022-10-05T10:56:00.939Z,38.04
2022-10-05T10:58:57.886Z,37.27
2022-10-05T11:02:04.150Z,37.11
2022-10-05T11:04:54.025Z,35.65
2022-10-05T11:07:55.390Z,34.71
2022-10-05T11:10:59.022Z,34.41
2022-10-05T11:14:02.910Z,34.68
2022-10-05T11:16:37.716Z,34.63
2022-10-05T11:19:35.079Z,34.20
2022-10-05T11:22:37.253Z,34.51
2022-10-05T11:25:11.131Z,34.34
2022-10-05T11:27:41.535Z,35.91
2022-10-05T11:30:35.697Z,34.32
2022-10-05T11:33:57.482Z,35.87
2022-10-05T11:36:43.000Z,33.28
2022-10-05T11:39:30.839Z,34.38
2022-10-05T11:42:29.520Z,33.76
2022-10-05T11:45:06.448Z,33.40
2022-10-05T11:48:10.103Z,34.78
2022-10-05T11:51:03.599Z,34.01
2022-10-05T11:53:39.180Z,33.95
2022-10-05T11:56:34.745Z,35.02
2022-10-05T11:59:13.428Z,32.99
2022-10-05T12:02:07.691Z,34.79
2022-10-05T12:04:54.391Z,32.25
2022-10-05T12:07:40.453Z,33.93
2022-10-05T12:10:23.648Z,31.83
2022-10-05T12:12:59.273Z,31.71
2022-10-05T12:15:45.349Z,32.67
2022-10-05T12:18:19.107Z,32.77
2022-10-05T12:20:54.367Z,31.18
2022-10-05T12:23:43.476Z,32.66
2022-10-05T12:26:16.546Z,32.60
2022-10-05T12:28:51.835Z,32.79
2022-10-05T12:31:25.618Z,32.56
2022-10-05T12:34:32.125Z,31.74
2022-10-05T12:37:31.210Z,30.49
2022-10-05T12:40:06.368Z,30.99
2022-10-05T12:42:42.138Z,31.93
2022-10-05T12:45:31.627Z,31.36
2022-10-05T12:48:05.562Z,31.83
2022-10-05T12:50:49.694Z,32.38
2022-10-05T12:54:14.410Z,32.53
2022-10-05T12:56:41.722Z,33.02
2022-10-05T12:59:34.627Z,32.98
2022-10-05T13:02:11.375Z,31.52
2022-10-05T13:05:04.229Z,33.29
2022-10-05T13:08:05.255Z,33.05
2022-10-05T13:10:32.904Z,32.83
2022-10-05T13:13:12.932Z,33.91
2022-10-05T13:15:58.661Z,33.37
2022-10-05T13:19:13.262Z,33.19
2022-10-05T13:21:47.663Z,34.43
2022-10-05T13:24:31.500Z,34.17
2022-10-05T13:27:14.352Z,32.67
2022-10-05T13:29:52.311Z,32.58
2022-10-05T13:32:36.222Z,33.53
2022-10-05T13:35:29.951Z,33.21
2022-10-05T13:38:03.277Z,32.11
2022-10-05T13:40:53.878Z,31.88
2022-10-05T13:43:39.516Z,30.99
2022-10-05T13:46:37.067Z,32.58
2022-10-05T13:49:26.697Z,32.17
2022-10-05T13:52:07.867Z,32.19
2022-10-05T13:54:44.546Z,32.09
2022-10-05T13:57:21.407Z,29.62
2022-10-05T13:59:53.426Z,29.83
2022-10-05T14:02:25.762Z,28.35
2022-10-05T14:05:19.660Z,28.06
2022-10-05T14:08:17.120Z,28.30
2022-10-05T14:10:47.329Z,26.17
2022-10-05T14:13:23.862Z,25.11
2022-10-05T14:16:04.770Z,25.52
2022-10-05T14:18:36.812Z,24.50
2022-10-05T14:21:14.008Z,24.07
2022-10-05T14:23:41.795Z,23.70
2022-10-05T14:26:26.584Z,23.65
2022-10-05T14:29:00.285Z,23.89
2022-10-05T14:31:37.221Z,24.68
2022-10-05T14:34:29.815Z,25.50
2022-10-05T14:37:01.934Z,24.39
2022-10-05T14:39:34.623Z,24.36
2022-10-05T14:42:32.653Z,26.14
2022-10-05T14:45:12.833Z,25.76
2022-10-05T14:47:49.946Z,25.48
2022-10-05T14:50:18.023Z,26.53
2022-10-05T14:53:11.922Z,25.50
2022-10-05T14:55:46.103Z,25.94
2022-10-05T14:58:13.847Z,28.01
2022-10-05T15:00:55.502Z,29.36
2022-10-05T15:03:31.514Z,30.30
2022-10-05T15:06:01.976Z,31.31
2022-10-05T15:08:37.112Z,31.82
2022-10-05T15:11:14.296Z,34.02
2022-10-05T15:13:45.367Z,35.61
2022-10-05T15:16:15.877Z,37.13
2022-10-05T15:18:49.018Z,37.97
2022-10-05T15:21:42.464Z,40.77
2022-10-05T15:24:24.452Z,40.25
2022-10-05T15:26:58.085Z,39.90
2022-10-05T15:29:42.650Z,42.88
2022-10-05T15:32:34.426Z,43.58
2022-10-05T15:35:20.690Z,45.30
2022-10-05T15:37:56.751Z,46.30
2022-10-05T15:40:30.610Z,47.19
2022-10-05T15:43:04.679Z,49.13
2022-10-05T15:45:53.050Z,48.14
2022-10-05T15:48:30.053Z,48.66
2022-10-05T15:51:05.888Z,48.79
2022-10-05T15:54:40.608Z,48.86
2022-10-05T15:57:21.375Z,50.43
2022-10-05T15:59:54.497Z,50.63
2022-10-05T16:02:52.635Z,52.05
2022-10-05T16:05:45.385Z,52.14
2022-10-05T16:08:54.411Z,52.71
2022-10-05T16:11:45.415Z,53.46
2022-10-05T16:14:40.539Z,53.98
2022-10-05T16:17:08.234Z,54.91
2022-10-05T16:20:14.942Z,55.45
2022-10-05T16:22:59.563Z,54.93
2022-10-05T16:25:59.006Z,55.54
2022-10-05T16:29:05.132Z,55.88
2022-10-05T16:31:44.354Z,57.05
2022-10-05T16:34:17.344Z,57.53
2022-10-05T16:37:23.903Z,57.62
2022-10-05T16:40:02.434Z,57.46
2022-10-05T16:42:50.206Z,56.69
2022-10-05T16:45:29.035Z,58.60
2022-10-05T16:48:02.412Z,58.74
2022-10-05T16:50:37.371Z,58.78
2022-10-05T16:53:17.664Z,58.51
2022-10-05T16:55:50.586Z,59.44
2022-10-05T16:58:42.967Z,59.91
2022-10-05T17:01:55.481Z,59.99
2022-10-05T17:04:40.662Z,59.82
2022-10-05T17:07:23.266Z,59.33
2022-10-05T17:10:10.497Z,59.94
2022-10-05T17:12:51.506Z,59.46
2022-10-05T17:15:38.744Z,60.33
2022-10-05T17:18:29.560Z,61.37
2022-10-05T17:21:23.071Z,61.45
2022-10-05T17:23:59.862Z,61.37
2022-10-05T17:26:45.556Z,61.87
2022-10-05T17:29:35.072Z,62.50
2022-10-05T17:32:16.986Z,63.29
2022-10-05T17:35:02.868Z,62.90
2022-10-05T17:37:35.904Z,63.41
2022-10-05T17:40:34.783Z,62.72
2022-10-05T17:43:08.454Z,62.65
2022-10-05T17:45:36.157Z,63.25
2022-10-05T17:48:09.685Z,63.65
2022-10-05T17:51:04.689Z,63.17
2022-10-05T17:54:02.771Z,62.41
2022-10-05T17:56:33.948Z,63.18
2022-10-05T17:59:04.692Z,62.67
2022-10-05T18:01:41.932Z,63.17
2022-10-05T18:04:12.886Z,64.62
2022-10-05T18:06:59.720Z,63.79
2022-10-05T18:09:27.972Z,64.01
2022-10-05T18:12:17.189Z,63.85
2022-10-05T18:15:07.801Z,64.96
2022-10-05T18:17:45.418Z,64.83
2022-10-05T18:20:27.246Z,64.13
2022-10-05T18:23:25.805Z,64.52
2022-10-05T18:26:04.771Z,63.97
2022-10-05T18:29:14.181Z,64.64
2022-10-05T18:32:03.064Z,64.86
2022-10-05T18:34:39.761Z,64.94
2022-10-05T18:37:27.233Z,65.42
2022-10-05T18:39:55.058Z,65.57
2022-10-05T18:42:39.568Z,65.31
2022-10-05T18:45:18.942Z,65.37
2022-10-05T18:48:15.543Z,65.26
2022-10-05T18:51:01.176Z,65.31
2022-10-05T18:54:11.894Z,66.24
2022-10-05T18:57:20.743Z,65.64
2022-10-05T19:00:07.119Z,66.36
2022-10-05T19:02:48.556Z,67.27
2022-10-05T19:05:48.307Z,67.40
2022-10-05T19:08:34.427Z,67.12
2022-10-05T19:11:18.175Z,67.73
2022-10-05T19:14:13.791Z,67.25
2022-10-05T19:17:02.106Z,66.90
2022-10-05T19:19:51.178Z,67.67
2022-10-05T19:22:44.046Z,68.20
2022-10-05T19:25:37.644Z,66.95
2022-10-05T19:28:17.904Z,65.69
2022-10-05T19:30:48.285Z,66.12
2022-10-05T19:34:04.098Z,65.97
2022-10-05T19:36:40.765Z,65.70
2022-10-05T19:39:21.697Z,65.72
2022-10-05T19:42:06.688Z,66.15
2022-10-05T19:45:03.944Z,66.60
2022-10-05T19:47:31.235Z,67.16
2022-10-05T19:50:18.766Z,66.53
2022-10-05T19:52:50.907Z,66.35
2022-10-05T19:55:22.538Z,67.32
2022-10-05T19:58:01.408Z,67.33
2022-10-05T20:00:31.433Z,67.44
2022-10-05T20:03:17.143Z,67.70
2022-10-05T20:05:45.396Z,67.26
2022-10-05T20:08:19.378Z,67.51
2022-10-05T20:11:23.840Z,67.69
2022-10-05T20:13:57.639Z,67.78
2022-10-05T20:22:47.158Z,67.78
2022-10-05T20:25:17.904Z,67.15
2022-10-05T20:27:51.900Z,67.99
2022-10-05T20:30:23.549Z,68.03
2022-10-05T20:32:52.862Z,66.98
2022-10-05T20:35:23.178Z,67.49
2022-10-05T20:37:50.542Z,67.98
2022-10-05T20:40:20.473Z,68.15
2022-10-05T20:42:48.193Z,69.43
2022-10-05T20:45:15.683Z,68.19
2022-10-05T20:47:43.282Z,67.91
2022-10-05T20:50:11.304Z,66.22
2022-10-05T20:52:39.019Z,66.52
2022-10-05T20:55:09.153Z,67.51
2022-10-05T20:57:43.741Z,68.81
2022-10-05T21:00:12.787Z,70.54
2022-10-05T21:02:40.811Z,69.56
2022-10-05T21:05:09.285Z,70.78
2022-10-05T21:07:36.676Z,70.47
2022-10-05T21:10:04.774Z,70.18
2022-10-05T21:12:34.122Z,69.31
2022-10-05T21:15:01.610Z,68.70
2022-10-05T21:17:29.250Z,67.82
2022-10-05T21:19:57.814Z,68.06
2022-10-05T21:22:25.225Z,69.82
2022-10-05T21:24:53.214Z,69.37
2022-10-05T21:27:20.477Z,68.90
2022-10-05T21:29:47.718Z,67.99
2022-10-05T21:32:15.402Z,67.85
2022-10-05T21:34:42.682Z,67.82
2022-10-05T21:37:09.980Z,67.63
2022-10-05T21:39:37.633Z,67.92
2022-10-05T21:42:05.102Z,68.36
2022-10-05T21:44:32.430Z,68.61
2022-10-05T21:47:00.761Z,68.31
2022-10-05T21:49:28.788Z,68.60
2022-10-05T21:51:56.485Z,70.27
2022-10-05T21:54:24.533Z,69.80
2022-10-05T21:56:55.828Z,70.85
2022-10-05T21:59:29.100Z,71.89
2022-10-05T22:01:56.825Z,72.53
2022-10-05T22:04:24.679Z,71.17
2022-10-05T22:06:52.032Z,70.35
2022-10-05T22:09:19.355Z,70.47
2022-10-05T22:11:48.539Z,70.85
2022-10-05T22:14:16.305Z,70.09
2022-10-05T22:16:44.524Z,69.46
2022-10-05T22:19:18.828Z,70.79
2022-10-05T22:21:46.186Z,71.13
2022-10-05T22:24:13.958Z,70.58
2022-10-05T22:26:44.028Z,70.25
2022-10-05T22:29:11.943Z,71.04
2022-10-05T22:31:39.934Z,71.10
2022-10-05T22:34:07.413Z,72.01
2022-10-05T22:36:36.013Z,71.83
2022-10-05T22:39:04.068Z,71.80
2022-10-05T22:41:31.438Z,72.09
2022-10-05T22:43:59.286Z,70.55
2022-10-05T22:46:27.026Z,70.21
2022-10-05T22:48:54.285Z,68.84
2022-10-05T22:51:21.547Z,70.02
2022-10-05T22:53:49.182Z,70.04
2022-10-05T22:56:18.314Z,70.01
2022-10-05T22:58:45.889Z,70.10
2022-10-05T23:01:18.685Z,69.77
2022-10-05T23:03:46.388Z,69.77
2022-10-05T23:06:26.656Z,69.98
2022-10-05T23:08:54.493Z,70.36
2022-10-05T23:11:26.027Z,70.90
2022-10-05T23:13:58.145Z,70.58
2022-10-05T23:16:28.131Z,69.59
2022-10-05T23:18:56.495Z,70.11
2022-10-05T23:21:25.952Z,70.30
2022-10-05T23:23:54.027Z,70.42
2022-10-05T23:26:23.685Z,70.30
2022-10-05T23:28:51.529Z,69.56
2022-10-05T23:31:22.316Z,69.74
2022-10-05T23:33:50.033Z,69.70
2022-10-05T23:36:22.855Z,70.08
2022-10-05T23:38:51.252Z,70.47
2022-10-05T23:41:20.054Z,69.61
2022-10-05T23:43:47.827Z,69.76
2022-10-05T23:46:15.557Z,69.66
2022-10-05T23:48:42.853Z,70.53
2022-10-05T23:51:12.267Z,71.59
2022-10-05T23:53:40.171Z,71.02
2022-10-05T23:56:07.758Z,71.42
2022-10-05T23:58:35.102Z,71.02
